sensor_id;sensor_type;location;lat;lon;timestamp;temperature;humidity
4374;DHT22;2201;51.100;6.814;2023-06-14T00:01:14;20.30;72.90
4374;DHT22;2201;51.100;6.814;2023-06-14T00:03:41;20.20;73.60
4374;DHT22;2201;51.100;6.814;2023-06-14T00:06:08;20.10;73.60
4374;DHT22;2201;51.100;6.814;2023-06-14T00:08:34;20.10;73.80
4374;DHT22;2201;51.100;6.814;2023-06-14T00:11:01;20.00;74.10
4374;DHT22;2201;51.100;6.814;2023-06-14T00:13:28;20.00;74.40
4374;DHT22;2201;51.100;6.814;2023-06-14T00:15:56;19.90;74.50
4374;DHT22;2201;51.100;6.814;2023-06-14T00:18:23;19.80;74.10
4374;DHT22;2201;51.100;6.814;2023-06-14T00:20:52;19.80;74.80
4374;DHT22;2201;51.100;6.814;2023-06-14T00:23:19;19.70;75.20
4374;DHT22;2201;51.100;6.814;2023-06-14T00:25:46;19.70;74.50
4374;DHT22;2201;51.100;6.814;2023-06-14T00:28:13;19.60;74.80
4374;DHT22;2201;51.100;6.814;2023-06-14T00:30:40;19.60;74.70
4374;DHT22;2201;51.100;6.814;2023-06-14T00:33:08;19.60;75.50
4374;DHT22;2201;51.100;6.814;2023-06-14T00:35:34;19.50;75.60
4374;DHT22;2201;51.100;6.814;2023-06-14T00:38:01;19.40;75.70
4374;DHT22;2201;51.100;6.814;2023-06-14T00:40:28;19.40;75.70
4374;DHT22;2201;51.100;6.814;2023-06-14T00:42:55;19.30;75.70
4374;DHT22;2201;51.100;6.814;2023-06-14T00:45:22;19.30;75.80
4374;DHT22;2201;51.100;6.814;2023-06-14T00:47:49;19.30;77.40
4374;DHT22;2201;51.100;6.814;2023-06-14T00:50:20;19.20;77.10
4374;DHT22;2201;51.100;6.814;2023-06-14T00:52:47;19.20;77.60
4374;DHT22;2201;51.100;6.814;2023-06-14T00:55:14;19.10;77.80
4374;DHT22;2201;51.100;6.814;2023-06-14T00:57:41;19.10;77.20
4374;DHT22;2201;51.100;6.814;2023-06-14T01:00:08;19.00;77.60
4374;DHT22;2201;51.100;6.814;2023-06-14T01:02:36;19.00;78.50
4374;DHT22;2201;51.100;6.814;2023-06-14T01:05:03;18.90;78.30
4374;DHT22;2201;51.100;6.814;2023-06-14T01:07:40;18.90;79.10
4374;DHT22;2201;51.100;6.814;2023-06-14T01:10:27;18.90;79.40
4374;DHT22;2201;51.100;6.814;2023-06-14T01:13:01;18.80;79.70
4374;DHT22;2201;51.100;6.814;2023-06-14T01:15:31;18.80;79.60
4374;DHT22;2201;51.100;6.814;2023-06-14T01:17:58;18.70;79.90
4374;DHT22;2201;51.100;6.814;2023-06-14T01:20:29;18.70;79.20
4374;DHT22;2201;51.100;6.814;2023-06-14T01:22:58;18.70;80.50
4374;DHT22;2201;51.100;6.814;2023-06-14T01:25:25;18.60;80.30
4374;DHT22;2201;51.100;6.814;2023-06-14T01:27:55;18.60;80.30
4374;DHT22;2201;51.100;6.814;2023-06-14T01:30:23;18.50;80.60
4374;DHT22;2201;51.100;6.814;2023-06-14T01:32:52;18.50;81.00
4374;DHT22;2201;51.100;6.814;2023-06-14T01:35:20;18.50;80.40
4374;DHT22;2201;51.100;6.814;2023-06-14T01:37:48;18.40;80.40
4374;DHT22;2201;51.100;6.814;2023-06-14T01:40:17;18.40;80.60
4374;DHT22;2201;51.100;6.814;2023-06-14T01:42:45;18.30;80.80
4374;DHT22;2201;51.100;6.814;2023-06-14T01:45:13;18.30;81.20
4374;DHT22;2201;51.100;6.814;2023-06-14T01:47:40;18.30;81.60
4374;DHT22;2201;51.100;6.814;2023-06-14T01:50:08;18.20;80.90
4374;DHT22;2201;51.100;6.814;2023-06-14T01:52:36;18.20;81.40
4374;DHT22;2201;51.100;6.814;2023-06-14T01:55:04;18.20;82.30
4374;DHT22;2201;51.100;6.814;2023-06-14T01:57:32;18.10;81.80
4374;DHT22;2201;51.100;6.814;2023-06-14T01:59:59;18.10;82.20
4374;DHT22;2201;51.100;6.814;2023-06-14T02:02:26;18.00;82.30
4374;DHT22;2201;51.100;6.814;2023-06-14T02:04:52;18.00;82.70
4374;DHT22;2201;51.100;6.814;2023-06-14T02:07:22;18.00;83.00
4374;DHT22;2201;51.100;6.814;2023-06-14T02:09:49;17.90;83.10
4374;DHT22;2201;51.100;6.814;2023-06-14T02:12:16;17.90;83.60
4374;DHT22;2201;51.100;6.814;2023-06-14T02:14:44;17.90;83.30
4374;DHT22;2201;51.100;6.814;2023-06-14T02:17:11;17.80;83.30
4374;DHT22;2201;51.100;6.814;2023-06-14T02:19:38;17.80;83.10
4374;DHT22;2201;51.100;6.814;2023-06-14T02:22:05;17.80;83.40
4374;DHT22;2201;51.100;6.814;2023-06-14T02:24:32;17.70;83.20
4374;DHT22;2201;51.100;6.814;2023-06-14T02:26:59;17.70;83.50
4374;DHT22;2201;51.100;6.814;2023-06-14T02:29:25;17.60;83.60
4374;DHT22;2201;51.100;6.814;2023-06-14T02:31:54;17.60;83.20
4374;DHT22;2201;51.100;6.814;2023-06-14T02:34:20;17.60;84.10
4374;DHT22;2201;51.100;6.814;2023-06-14T02:36:47;17.50;83.30
4374;DHT22;2201;51.100;6.814;2023-06-14T02:39:15;17.50;83.00
4374;DHT22;2201;51.100;6.814;2023-06-14T02:41:43;17.50;83.50
4374;DHT22;2201;51.100;6.814;2023-06-14T02:44:10;17.40;83.50
4374;DHT22;2201;51.100;6.814;2023-06-14T02:46:38;17.40;84.20
4374;DHT22;2201;51.100;6.814;2023-06-14T02:49:06;17.40;84.10
4374;DHT22;2201;51.100;6.814;2023-06-14T02:51:33;17.40;83.90
4374;DHT22;2201;51.100;6.814;2023-06-14T02:54:00;17.30;84.10
4374;DHT22;2201;51.100;6.814;2023-06-14T02:56:27;17.30;84.20
4374;DHT22;2201;51.100;6.814;2023-06-14T02:58:53;17.30;84.90
4374;DHT22;2201;51.100;6.814;2023-06-14T03:01:20;17.20;84.70
4374;DHT22;2201;51.100;6.814;2023-06-14T03:03:48;17.20;85.40
4374;DHT22;2201;51.100;6.814;2023-06-14T03:06:16;17.20;85.80
4374;DHT22;2201;51.100;6.814;2023-06-14T03:08:44;17.20;86.10
4374;DHT22;2201;51.100;6.814;2023-06-14T03:11:11;17.20;87.10
4374;DHT22;2201;51.100;6.814;2023-06-14T03:13:38;17.10;86.00
4374;DHT22;2201;51.100;6.814;2023-06-14T03:16:06;17.10;85.90
4374;DHT22;2201;51.100;6.814;2023-06-14T03:18:34;17.10;85.70
4374;DHT22;2201;51.100;6.814;2023-06-14T03:21:01;17.10;86.30
4374;DHT22;2201;51.100;6.814;2023-06-14T03:23:30;17.00;86.30
4374;DHT22;2201;51.100;6.814;2023-06-14T03:25:56;17.00;86.10
4374;DHT22;2201;51.100;6.814;2023-06-14T03:28:23;17.00;86.10
4374;DHT22;2201;51.100;6.814;2023-06-14T03:30:51;17.00;86.30
4374;DHT22;2201;51.100;6.814;2023-06-14T03:33:18;17.00;86.30
4374;DHT22;2201;51.100;6.814;2023-06-14T03:35:44;17.00;87.10
4374;DHT22;2201;51.100;6.814;2023-06-14T03:38:11;17.00;85.90
4374;DHT22;2201;51.100;6.814;2023-06-14T03:40:39;17.00;87.10
4374;DHT22;2201;51.100;6.814;2023-06-14T03:43:06;17.00;86.50
4374;DHT22;2201;51.100;6.814;2023-06-14T03:45:33;16.90;86.30
4374;DHT22;2201;51.100;6.814;2023-06-14T03:48:00;16.90;87.20
4374;DHT22;2201;51.100;6.814;2023-06-14T03:50:27;16.90;86.70
4374;DHT22;2201;51.100;6.814;2023-06-14T03:52:53;16.90;86.50
4374;DHT22;2201;51.100;6.814;2023-06-14T03:55:20;16.90;87.40
4374;DHT22;2201;51.100;6.814;2023-06-14T03:57:48;16.90;86.70
4374;DHT22;2201;51.100;6.814;2023-06-14T04:00:16;17.00;87.10
4374;DHT22;2201;51.100;6.814;2023-06-14T04:02:43;17.00;86.90
4374;DHT22;2201;51.100;6.814;2023-06-14T04:05:10;17.00;87.20
4374;DHT22;2201;51.100;6.814;2023-06-14T04:07:37;17.00;87.20
4374;DHT22;2201;51.100;6.814;2023-06-14T04:10:06;17.00;87.00
4374;DHT22;2201;51.100;6.814;2023-06-14T04:12:34;17.00;86.90
4374;DHT22;2201;51.100;6.814;2023-06-14T04:15:02;17.10;87.40
4374;DHT22;2201;51.100;6.814;2023-06-14T04:17:31;17.10;87.30
4374;DHT22;2201;51.100;6.814;2023-06-14T04:19:59;17.10;87.40
4374;DHT22;2201;51.100;6.814;2023-06-14T04:22:26;17.10;87.40
4374;DHT22;2201;51.100;6.814;2023-06-14T04:24:54;17.10;88.90
4374;DHT22;2201;51.100;6.814;2023-06-14T04:27:22;17.20;89.00
4374;DHT22;2201;51.100;6.814;2023-06-14T04:29:51;17.20;89.20
4374;DHT22;2201;51.100;6.814;2023-06-14T04:32:23;17.20;88.80
4374;DHT22;2201;51.100;6.814;2023-06-14T04:34:51;17.30;88.20
4374;DHT22;2201;51.100;6.814;2023-06-14T04:37:19;17.40;88.50
4374;DHT22;2201;51.100;6.814;2023-06-14T04:39:46;17.50;88.60
4374;DHT22;2201;51.100;6.814;2023-06-14T04:42:13;17.60;87.80
4374;DHT22;2201;51.100;6.814;2023-06-14T04:44:41;17.70;89.40
4374;DHT22;2201;51.100;6.814;2023-06-14T04:47:08;17.90;88.40
4374;DHT22;2201;51.100;6.814;2023-06-14T04:49:38;18.00;88.20
4374;DHT22;2201;51.100;6.814;2023-06-14T04:52:06;18.20;87.70
4374;DHT22;2201;51.100;6.814;2023-06-14T04:54:33;18.40;87.70
4374;DHT22;2201;51.100;6.814;2023-06-14T04:57:03;18.60;87.30
4374;DHT22;2201;51.100;6.814;2023-06-14T04:59:31;18.90;85.70
4374;DHT22;2201;51.100;6.814;2023-06-14T05:01:59;19.10;85.20
4374;DHT22;2201;51.100;6.814;2023-06-14T05:04:26;19.30;83.10
4374;DHT22;2201;51.100;6.814;2023-06-14T05:06:54;19.40;83.40
4374;DHT22;2201;51.100;6.814;2023-06-14T05:09:22;19.60;83.00
4374;DHT22;2201;51.100;6.814;2023-06-14T05:11:49;19.80;82.10
4374;DHT22;2201;51.100;6.814;2023-06-14T05:14:16;19.90;81.20
4374;DHT22;2201;51.100;6.814;2023-06-14T05:16:42;20.10;81.70
4374;DHT22;2201;51.100;6.814;2023-06-14T05:19:09;20.30;81.60
4374;DHT22;2201;51.100;6.814;2023-06-14T05:21:36;20.40;81.80
4374;DHT22;2201;51.100;6.814;2023-06-14T05:24:05;20.50;82.20
4374;DHT22;2201;51.100;6.814;2023-06-14T05:26:32;20.70;80.10
4374;DHT22;2201;51.100;6.814;2023-06-14T05:28:59;20.90;79.70
4374;DHT22;2201;51.100;6.814;2023-06-14T05:31:27;21.10;78.30
4374;DHT22;2201;51.100;6.814;2023-06-14T05:33:54;21.10;76.80
4374;DHT22;2201;51.100;6.814;2023-06-14T05:36:21;21.10;75.60
4374;DHT22;2201;51.100;6.814;2023-06-14T05:38:47;21.30;75.20
4374;DHT22;2201;51.100;6.814;2023-06-14T05:41:16;21.30;76.00
4374;DHT22;2201;51.100;6.814;2023-06-14T05:43:43;21.40;74.80
4374;DHT22;2201;51.100;6.814;2023-06-14T05:46:10;21.40;75.10
4374;DHT22;2201;51.100;6.814;2023-06-14T05:48:36;21.50;74.30
4374;DHT22;2201;51.100;6.814;2023-06-14T05:51:03;21.50;74.90
4374;DHT22;2201;51.100;6.814;2023-06-14T05:53:34;21.60;73.20
4374;DHT22;2201;51.100;6.814;2023-06-14T05:56:00;21.70;72.80
4374;DHT22;2201;51.100;6.814;2023-06-14T05:58:29;21.80;72.20
4374;DHT22;2201;51.100;6.814;2023-06-14T06:00:55;21.80;72.30
4374;DHT22;2201;51.100;6.814;2023-06-14T06:03:23;21.90;71.30
4374;DHT22;2201;51.100;6.814;2023-06-14T06:05:50;22.00;71.00
4374;DHT22;2201;51.100;6.814;2023-06-14T06:08:16;22.10;71.10
4374;DHT22;2201;51.100;6.814;2023-06-14T06:10:44;22.10;70.20
4374;DHT22;2201;51.100;6.814;2023-06-14T06:13:10;22.20;71.90
4374;DHT22;2201;51.100;6.814;2023-06-14T06:15:39;22.40;71.20
4374;DHT22;2201;51.100;6.814;2023-06-14T06:18:05;22.60;70.00
4374;DHT22;2201;51.100;6.814;2023-06-14T06:20:32;22.60;70.10
4374;DHT22;2201;51.100;6.814;2023-06-14T06:23:00;22.60;70.70
4374;DHT22;2201;51.100;6.814;2023-06-14T06:25:27;22.60;69.70
4374;DHT22;2201;51.100;6.814;2023-06-14T06:27:54;22.50;70.00
4374;DHT22;2201;51.100;6.814;2023-06-14T06:30:22;22.70;70.60
4374;DHT22;2201;51.100;6.814;2023-06-14T06:32:50;23.00;69.50
4374;DHT22;2201;51.100;6.814;2023-06-14T06:35:17;23.20;69.70
4374;DHT22;2201;51.100;6.814;2023-06-14T06:37:44;23.50;69.10
4374;DHT22;2201;51.100;6.814;2023-06-14T06:40:11;23.60;68.40
4374;DHT22;2201;51.100;6.814;2023-06-14T06:42:38;23.70;67.40
4374;DHT22;2201;51.100;6.814;2023-06-14T06:45:05;23.90;66.70
4374;DHT22;2201;51.100;6.814;2023-06-14T06:47:32;24.00;67.30
4374;DHT22;2201;51.100;6.814;2023-06-14T06:50:00;23.90;66.30
4374;DHT22;2201;51.100;6.814;2023-06-14T06:52:27;23.80;66.70
4374;DHT22;2201;51.100;6.814;2023-06-14T06:54:54;24.00;67.40
4374;DHT22;2201;51.100;6.814;2023-06-14T06:57:21;24.20;66.50
4374;DHT22;2201;51.100;6.814;2023-06-14T06:59:48;24.50;66.50
4374;DHT22;2201;51.100;6.814;2023-06-14T07:02:16;24.70;67.10
4374;DHT22;2201;51.100;6.814;2023-06-14T07:04:43;24.90;66.10
4374;DHT22;2201;51.100;6.814;2023-06-14T07:07:11;25.10;64.40
4374;DHT22;2201;51.100;6.814;2023-06-14T07:09:37;25.30;65.00
4374;DHT22;2201;51.100;6.814;2023-06-14T07:12:05;25.30;64.40
4374;DHT22;2201;51.100;6.814;2023-06-14T07:14:32;25.50;63.60
4374;DHT22;2201;51.100;6.814;2023-06-14T07:16:59;25.60;62.90
4374;DHT22;2201;51.100;6.814;2023-06-14T07:19:25;25.80;61.90
4374;DHT22;2201;51.100;6.814;2023-06-14T07:21:52;25.90;60.50
4374;DHT22;2201;51.100;6.814;2023-06-14T07:24:21;25.60;60.10
4374;DHT22;2201;51.100;6.814;2023-06-14T07:26:47;25.30;59.40
4374;DHT22;2201;51.100;6.814;2023-06-14T07:29:14;25.30;61.10
4374;DHT22;2201;51.100;6.814;2023-06-14T07:31:42;25.30;59.60
4374;DHT22;2201;51.100;6.814;2023-06-14T07:34:09;25.30;59.20
4374;DHT22;2201;51.100;6.814;2023-06-14T07:36:36;25.40;59.20
4374;DHT22;2201;51.100;6.814;2023-06-14T07:39:03;25.40;59.20
4374;DHT22;2201;51.100;6.814;2023-06-14T07:41:33;25.50;59.50
4374;DHT22;2201;51.100;6.814;2023-06-14T07:43:59;25.70;58.70
4374;DHT22;2201;51.100;6.814;2023-06-14T07:46:26;25.60;58.40
4374;DHT22;2201;51.100;6.814;2023-06-14T07:48:53;25.60;58.80
4374;DHT22;2201;51.100;6.814;2023-06-14T07:51:20;25.70;58.70
4374;DHT22;2201;51.100;6.814;2023-06-14T07:53:48;25.90;59.50
4374;DHT22;2201;51.100;6.814;2023-06-14T07:56:15;26.20;58.40
4374;DHT22;2201;51.100;6.814;2023-06-14T07:58:43;26.30;57.60
4374;DHT22;2201;51.100;6.814;2023-06-14T08:01:10;26.40;57.10
4374;DHT22;2201;51.100;6.814;2023-06-14T08:03:37;26.50;58.10
4374;DHT22;2201;51.100;6.814;2023-06-14T08:06:05;26.60;56.10
4374;DHT22;2201;51.100;6.814;2023-06-14T08:08:33;26.70;55.20
4374;DHT22;2201;51.100;6.814;2023-06-14T08:11:00;26.80;54.80
4374;DHT22;2201;51.100;6.814;2023-06-14T08:13:26;26.90;53.80
4374;DHT22;2201;51.100;6.814;2023-06-14T08:15:55;26.90;53.70
4374;DHT22;2201;51.100;6.814;2023-06-14T08:18:22;27.00;54.00
4374;DHT22;2201;51.100;6.814;2023-06-14T08:20:50;27.20;54.50
4374;DHT22;2201;51.100;6.814;2023-06-14T08:23:18;27.40;52.90
4374;DHT22;2201;51.100;6.814;2023-06-14T08:25:46;27.50;53.30
4374;DHT22;2201;51.100;6.814;2023-06-14T08:28:13;27.60;53.10
4374;DHT22;2201;51.100;6.814;2023-06-14T08:30:41;27.70;53.30
4374;DHT22;2201;51.100;6.814;2023-06-14T08:33:09;27.70;52.40
4374;DHT22;2201;51.100;6.814;2023-06-14T08:35:36;27.30;52.30
4374;DHT22;2201;51.100;6.814;2023-06-14T08:38:05;27.20;54.30
4374;DHT22;2201;51.100;6.814;2023-06-14T08:40:37;27.40;54.20
4374;DHT22;2201;51.100;6.814;2023-06-14T08:43:04;27.70;54.40
4374;DHT22;2201;51.100;6.814;2023-06-14T08:45:31;28.00;54.00
4374;DHT22;2201;51.100;6.814;2023-06-14T08:47:58;28.20;53.30
4374;DHT22;2201;51.100;6.814;2023-06-14T08:50:33;28.30;53.80
4374;DHT22;2201;51.100;6.814;2023-06-14T08:53:06;28.30;53.80
4374;DHT22;2201;51.100;6.814;2023-06-14T08:55:36;28.40;53.70
4374;DHT22;2201;51.100;6.814;2023-06-14T08:58:05;28.20;52.90
4374;DHT22;2201;51.100;6.814;2023-06-14T09:00:35;28.20;54.00
4374;DHT22;2201;51.100;6.814;2023-06-14T09:03:04;28.40;53.60
4374;DHT22;2201;51.100;6.814;2023-06-14T09:05:37;28.30;53.20
4374;DHT22;2201;51.100;6.814;2023-06-14T09:08:04;28.20;53.50
4374;DHT22;2201;51.100;6.814;2023-06-14T09:10:32;28.20;54.70
4374;DHT22;2201;51.100;6.814;2023-06-14T09:13:01;28.30;53.50
4374;DHT22;2201;51.100;6.814;2023-06-14T09:15:28;28.50;54.10
4374;DHT22;2201;51.100;6.814;2023-06-14T09:17:56;28.50;54.30
4374;DHT22;2201;51.100;6.814;2023-06-14T09:20:24;28.40;54.00
4374;DHT22;2201;51.100;6.814;2023-06-14T09:22:53;28.40;54.10
4374;DHT22;2201;51.100;6.814;2023-06-14T09:25:20;28.30;53.10
4374;DHT22;2201;51.100;6.814;2023-06-14T09:27:47;28.30;53.90
4374;DHT22;2201;51.100;6.814;2023-06-14T09:30:15;28.40;54.50
4374;DHT22;2201;51.100;6.814;2023-06-14T09:32:42;28.50;54.80
4374;DHT22;2201;51.100;6.814;2023-06-14T09:35:09;28.50;54.10
4374;DHT22;2201;51.100;6.814;2023-06-14T09:37:36;28.50;54.30
4374;DHT22;2201;51.100;6.814;2023-06-14T09:40:06;28.50;55.80
4374;DHT22;2201;51.100;6.814;2023-06-14T09:42:34;28.70;55.30
4374;DHT22;2201;51.100;6.814;2023-06-14T09:45:02;28.80;55.20
4374;DHT22;2201;51.100;6.814;2023-06-14T09:47:29;28.80;55.40
4374;DHT22;2201;51.100;6.814;2023-06-14T09:49:56;28.80;55.90
4374;DHT22;2201;51.100;6.814;2023-06-14T09:52:23;28.70;55.80
4374;DHT22;2201;51.100;6.814;2023-06-14T09:54:52;28.70;57.00
4374;DHT22;2201;51.100;6.814;2023-06-14T09:57:23;28.70;56.20
4374;DHT22;2201;51.100;6.814;2023-06-14T09:59:53;28.60;56.70
4374;DHT22;2201;51.100;6.814;2023-06-14T10:02:25;28.70;57.10
4374;DHT22;2201;51.100;6.814;2023-06-14T10:04:58;28.90;56.40
4374;DHT22;2201;51.100;6.814;2023-06-14T10:07:26;29.00;54.20
4374;DHT22;2201;51.100;6.814;2023-06-14T10:09:57;28.90;53.40
4374;DHT22;2201;51.100;6.814;2023-06-14T10:12:26;28.80;54.40
4374;DHT22;2201;51.100;6.814;2023-06-14T10:14:53;28.90;53.90
4374;DHT22;2201;51.100;6.814;2023-06-14T10:17:26;29.00;54.70
4374;DHT22;2201;51.100;6.814;2023-06-14T10:19:56;29.00;53.70
4374;DHT22;2201;51.100;6.814;2023-06-14T10:22:32;28.90;53.70
4374;DHT22;2201;51.100;6.814;2023-06-14T10:25:02;28.70;54.90
4374;DHT22;2201;51.100;6.814;2023-06-14T10:27:35;28.70;55.60
4374;DHT22;2201;51.100;6.814;2023-06-14T10:30:06;28.90;55.50
4374;DHT22;2201;51.100;6.814;2023-06-14T10:32:33;29.00;55.40
4374;DHT22;2201;51.100;6.814;2023-06-14T10:35:02;29.10;55.70
4374;DHT22;2201;51.100;6.814;2023-06-14T10:37:32;29.20;55.70
4374;DHT22;2201;51.100;6.814;2023-06-14T10:39:59;29.40;55.70
4374;DHT22;2201;51.100;6.814;2023-06-14T10:42:31;29.50;55.70
4374;DHT22;2201;51.100;6.814;2023-06-14T10:45:00;29.60;55.60
4374;DHT22;2201;51.100;6.814;2023-06-14T10:47:28;29.70;55.20
4374;DHT22;2201;51.100;6.814;2023-06-14T10:50:03;29.90;56.40
4374;DHT22;2201;51.100;6.814;2023-06-14T10:52:33;30.10;54.80
4374;DHT22;2201;51.100;6.814;2023-06-14T10:55:06;30.20;55.00
4374;DHT22;2201;51.100;6.814;2023-06-14T10:57:37;30.30;55.00
4374;DHT22;2201;51.100;6.814;2023-06-14T11:00:07;30.30;55.20
4374;DHT22;2201;51.100;6.814;2023-06-14T11:05:50;30.40;55.80
4374;DHT22;2201;51.100;6.814;2023-06-14T11:08:39;30.60;55.50
4374;DHT22;2201;51.100;6.814;2023-06-14T11:11:08;30.50;54.70
4374;DHT22;2201;51.100;6.814;2023-06-14T11:13:38;30.60;55.90
4374;DHT22;2201;51.100;6.814;2023-06-14T11:16:12;30.70;54.60
4374;DHT22;2201;51.100;6.814;2023-06-14T11:18:39;30.60;54.80
4374;DHT22;2201;51.100;6.814;2023-06-14T11:21:06;30.60;54.90
4374;DHT22;2201;51.100;6.814;2023-06-14T11:23:34;30.70;54.80
4374;DHT22;2201;51.100;6.814;2023-06-14T11:26:02;30.70;55.20
4374;DHT22;2201;51.100;6.814;2023-06-14T11:28:37;30.70;54.60
4374;DHT22;2201;51.100;6.814;2023-06-14T11:31:06;30.60;55.00
4374;DHT22;2201;51.100;6.814;2023-06-14T11:33:34;30.50;54.60
4374;DHT22;2201;51.100;6.814;2023-06-14T11:36:03;30.70;55.40
4374;DHT22;2201;51.100;6.814;2023-06-14T11:38:35;30.70;55.30
4374;DHT22;2201;51.100;6.814;2023-06-14T11:41:02;30.70;54.60
4374;DHT22;2201;51.100;6.814;2023-06-14T11:43:29;30.80;53.60
4374;DHT22;2201;51.100;6.814;2023-06-14T11:45:58;30.70;54.70
4374;DHT22;2201;51.100;6.814;2023-06-14T11:48:37;30.90;55.40
4374;DHT22;2201;51.100;6.814;2023-06-14T11:51:05;31.00;54.80
4374;DHT22;2201;51.100;6.814;2023-06-14T11:53:32;31.30;54.60
4374;DHT22;2201;51.100;6.814;2023-06-14T11:56:00;31.60;54.20
4374;DHT22;2201;51.100;6.814;2023-06-14T11:58:29;31.60;53.20
4374;DHT22;2201;51.100;6.814;2023-06-14T12:00:56;31.50;53.20
4374;DHT22;2201;51.100;6.814;2023-06-14T12:03:23;31.50;53.20
4374;DHT22;2201;51.100;6.814;2023-06-14T12:06:06;31.40;52.50
4374;DHT22;2201;51.100;6.814;2023-06-14T12:08:34;31.30;53.80
4374;DHT22;2201;51.100;6.814;2023-06-14T12:11:06;31.40;54.00
4374;DHT22;2201;51.100;6.814;2023-06-14T12:13:34;31.60;53.40
4374;DHT22;2201;51.100;6.814;2023-06-14T12:16:02;31.70;52.40
4374;DHT22;2201;51.100;6.814;2023-06-14T12:18:34;31.70;51.00
4374;DHT22;2201;51.100;6.814;2023-06-14T12:21:04;31.60;50.50
4374;DHT22;2201;51.100;6.814;2023-06-14T12:23:47;31.60;51.00
4374;DHT22;2201;51.100;6.814;2023-06-14T12:26:14;31.40;50.80
4374;DHT22;2201;51.100;6.814;2023-06-14T12:28:42;31.20;51.80
4374;DHT22;2201;51.100;6.814;2023-06-14T12:31:10;31.10;50.50
4374;DHT22;2201;51.100;6.814;2023-06-14T12:33:38;31.00;51.60
4374;DHT22;2201;51.100;6.814;2023-06-14T12:36:06;30.90;50.90
4374;DHT22;2201;51.100;6.814;2023-06-14T12:38:33;30.90;50.00
4374;DHT22;2201;51.100;6.814;2023-06-14T12:41:01;31.00;50.80
4374;DHT22;2201;51.100;6.814;2023-06-14T12:43:28;31.10;50.70
4374;DHT22;2201;51.100;6.814;2023-06-14T12:45:55;31.20;50.90
4374;DHT22;2201;51.100;6.814;2023-06-14T12:48:23;31.50;50.70
4374;DHT22;2201;51.100;6.814;2023-06-14T12:50:50;31.90;50.70
4374;DHT22;2201;51.100;6.814;2023-06-14T12:53:16;32.00;50.60
4374;DHT22;2201;51.100;6.814;2023-06-14T12:55:43;32.10;49.70
4374;DHT22;2201;51.100;6.814;2023-06-14T12:58:11;32.10;51.00
4374;DHT22;2201;51.100;6.814;2023-06-14T13:00:39;32.20;50.20
4374;DHT22;2201;51.100;6.814;2023-06-14T13:03:06;32.20;49.50
4374;DHT22;2201;51.100;6.814;2023-06-14T13:05:33;32.20;49.80
4374;DHT22;2201;51.100;6.814;2023-06-14T13:08:00;32.20;50.50
4374;DHT22;2201;51.100;6.814;2023-06-14T13:10:27;32.50;50.80
4374;DHT22;2201;51.100;6.814;2023-06-14T13:12:54;32.60;49.60
4374;DHT22;2201;51.100;6.814;2023-06-14T13:15:24;32.00;49.60
4374;DHT22;2201;51.100;6.814;2023-06-14T13:17:51;31.80;51.20
4374;DHT22;2201;51.100;6.814;2023-06-14T13:20:18;32.20;50.50
4374;DHT22;2201;51.100;6.814;2023-06-14T13:22:45;32.60;50.80
4374;DHT22;2201;51.100;6.814;2023-06-14T13:25:12;32.80;49.50
4374;DHT22;2201;51.100;6.814;2023-06-14T13:27:39;32.40;49.50
4374;DHT22;2201;51.100;6.814;2023-06-14T13:30:06;31.80;49.30
4374;DHT22;2201;51.100;6.814;2023-06-14T13:32:36;31.20;49.10
4374;DHT22;2201;51.100;6.814;2023-06-14T13:35:03;31.00;50.00
4374;DHT22;2201;51.100;6.814;2023-06-14T13:37:30;31.10;49.60
4374;DHT22;2201;51.100;6.814;2023-06-14T13:39:57;31.20;50.60
4374;DHT22;2201;51.100;6.814;2023-06-14T13:42:23;31.50;48.60
4374;DHT22;2201;51.100;6.814;2023-06-14T13:44:50;31.60;49.70
4374;DHT22;2201;51.100;6.814;2023-06-14T13:47:18;31.60;49.00
4374;DHT22;2201;51.100;6.814;2023-06-14T13:49:46;31.30;50.10
4374;DHT22;2201;51.100;6.814;2023-06-14T13:52:13;31.20;50.60
4374;DHT22;2201;51.100;6.814;2023-06-14T13:54:40;31.30;50.70
4374;DHT22;2201;51.100;6.814;2023-06-14T13:57:07;31.20;49.80
4374;DHT22;2201;51.100;6.814;2023-06-14T13:59:34;31.10;49.60
4374;DHT22;2201;51.100;6.814;2023-06-14T14:02:01;31.10;49.50
4374;DHT22;2201;51.100;6.814;2023-06-14T14:04:28;31.30;49.90
4374;DHT22;2201;51.100;6.814;2023-06-14T14:06:56;31.60;49.50
4374;DHT22;2201;51.100;6.814;2023-06-14T14:09:23;31.90;49.20
4374;DHT22;2201;51.100;6.814;2023-06-14T14:11:50;31.90;50.10
4374;DHT22;2201;51.100;6.814;2023-06-14T14:14:16;32.00;49.30
4374;DHT22;2201;51.100;6.814;2023-06-14T14:16:43;31.90;48.10
4374;DHT22;2201;51.100;6.814;2023-06-14T14:19:10;32.00;49.30
4374;DHT22;2201;51.100;6.814;2023-06-14T14:21:37;32.10;49.30
4374;DHT22;2201;51.100;6.814;2023-06-14T14:24:06;32.30;49.30
4374;DHT22;2201;51.100;6.814;2023-06-14T14:26:32;32.10;49.00
4374;DHT22;2201;51.100;6.814;2023-06-14T14:28:59;31.60;49.30
4374;DHT22;2201;51.100;6.814;2023-06-14T14:31:27;30.80;50.30
4374;DHT22;2201;51.100;6.814;2023-06-14T14:33:54;30.50;50.90
4374;DHT22;2201;51.100;6.814;2023-06-14T14:36:21;30.40;49.90
4374;DHT22;2201;51.100;6.814;2023-06-14T14:38:48;30.20;51.10
4374;DHT22;2201;51.100;6.814;2023-06-14T14:41:18;30.10;51.00
4374;DHT22;2201;51.100;6.814;2023-06-14T14:43:45;30.10;51.10
4374;DHT22;2201;51.100;6.814;2023-06-14T14:46:12;30.50;52.70
4374;DHT22;2201;51.100;6.814;2023-06-14T14:48:39;30.60;50.30
4374;DHT22;2201;51.100;6.814;2023-06-14T14:51:05;30.50;50.80
4374;DHT22;2201;51.100;6.814;2023-06-14T14:53:32;30.80;51.50
4374;DHT22;2201;51.100;6.814;2023-06-14T14:56:00;30.90;49.80
4374;DHT22;2201;51.100;6.814;2023-06-14T14:58:28;30.80;50.40
4374;DHT22;2201;51.100;6.814;2023-06-14T15:00:54;30.90;50.50
4374;DHT22;2201;51.100;6.814;2023-06-14T15:03:21;31.20;50.10
4374;DHT22;2201;51.100;6.814;2023-06-14T15:05:48;31.10;49.90
4374;DHT22;2201;51.100;6.814;2023-06-14T15:08:15;30.50;50.70
4374;DHT22;2201;51.100;6.814;2023-06-14T15:10:42;30.00;50.70
4374;DHT22;2201;51.100;6.814;2023-06-14T15:13:09;29.90;53.20
4374;DHT22;2201;51.100;6.814;2023-06-14T15:15:37;29.90;51.50
4374;DHT22;2201;51.100;6.814;2023-06-14T15:18:04;29.60;51.00
4374;DHT22;2201;51.100;6.814;2023-06-14T15:20:31;29.20;51.50
4374;DHT22;2201;51.100;6.814;2023-06-14T15:22:58;29.20;51.90
4374;DHT22;2201;51.100;6.814;2023-06-14T15:25:25;28.90;52.50
4374;DHT22;2201;51.100;6.814;2023-06-14T15:27:52;29.30;52.70
4374;DHT22;2201;51.100;6.814;2023-06-14T15:30:20;29.70;52.00
4374;DHT22;2201;51.100;6.814;2023-06-14T15:32:48;29.70;51.20
4374;DHT22;2201;51.100;6.814;2023-06-14T15:35:17;29.80;51.90
4374;DHT22;2201;51.100;6.814;2023-06-14T15:37:44;29.70;51.90
4374;DHT22;2201;51.100;6.814;2023-06-14T15:40:11;29.70;51.40
4374;DHT22;2201;51.100;6.814;2023-06-14T15:42:38;29.80;51.60
4374;DHT22;2201;51.100;6.814;2023-06-14T15:45:05;29.80;51.70
4374;DHT22;2201;51.100;6.814;2023-06-14T15:47:32;29.80;51.70
4374;DHT22;2201;51.100;6.814;2023-06-14T15:50:00;29.80;51.90
4374;DHT22;2201;51.100;6.814;2023-06-14T15:52:30;30.00;52.50
4374;DHT22;2201;51.100;6.814;2023-06-14T15:54:57;30.00;51.40
4374;DHT22;2201;51.100;6.814;2023-06-14T15:57:23;29.80;51.30
4374;DHT22;2201;51.100;6.814;2023-06-14T15:59:51;29.60;52.00
4374;DHT22;2201;51.100;6.814;2023-06-14T16:02:18;29.40;52.00
4374;DHT22;2201;51.100;6.814;2023-06-14T16:04:45;29.30;52.00
4374;DHT22;2201;51.100;6.814;2023-06-14T16:07:14;29.10;52.10
4374;DHT22;2201;51.100;6.814;2023-06-14T16:09:41;29.00;52.50